sensor_id;sensor_type;location;lat;lon;timestamp;temperature;humidity
36206;DHT22;22242;48.796;9.930;2022-12-29T00:01:22;8.60;99.90
36206;DHT22;22242;48.796;9.930;2022-12-29T00:03:48;8.80;99.90
36206;DHT22;22242;48.796;9.930;2022-12-29T00:06:17;8.80;99.90
36206;DHT22;22242;48.796;9.930;2022-12-29T00:08:43;8.80;99.90
36206;DHT22;22242;48.796;9.930;2022-12-29T00:11:11;8.80;99.90
36206;DHT22;22242;48.796;9.930;2022-12-29T00:13:38;8.80;99.90
36206;DHT22;22242;48.796;9.930;2022-12-29T00:16:23;8.80;99.90
36206;DHT22;22242;48.796;9.930;2022-12-29T00:18:50;8.80;99.90
36206;DHT22;22242;48.796;9.930;2022-12-29T00:21:18;8.80;99.90
36206;DHT22;22242;48.796;9.930;2022-12-29T00:24:03;8.80;99.90
36206;DHT22;22242;48.796;9.930;2022-12-29T00:26:47;8.90;99.90
36206;DHT22;22242;48.796;9.930;2022-12-29T00:29:31;8.90;99.90
36206;DHT22;22242;48.796;9.930;2022-12-29T00:32:24;8.90;99.90
36206;DHT22;22242;48.796;9.930;2022-12-29T00:35:10;9.00;99.90
36206;DHT22;22242;48.796;9.930;2022-12-29T00:37:40;9.20;99.90
36206;DHT22;22242;48.796;9.930;2022-12-29T00:40:25;9.30;99.90
36206;DHT22;22242;48.796;9.930;2022-12-29T00:43:10;9.40;99.90
36206;DHT22;22242;48.796;9.930;2022-12-29T00:45:54;9.60;99.90
36206;DHT22;22242;48.796;9.930;2022-12-29T00:48:21;9.80;99.90
36206;DHT22;22242;48.796;9.930;2022-12-29T00:51:02;9.80;99.90
36206;DHT22;22242;48.796;9.930;2022-12-29T00:53:30;9.80;99.90
36206;DHT22;22242;48.796;9.930;2022-12-29T00:55:57;9.80;99.90
36206;DHT22;22242;48.796;9.930;2022-12-29T00:58:27;9.80;99.90
36206;DHT22;22242;48.796;9.930;2022-12-29T01:01:00;10.10;99.90
36206;DHT22;22242;48.796;9.930;2022-12-29T01:03:26;10.20;99.90
36206;DHT22;22242;48.796;9.930;2022-12-29T01:05:53;10.20;99.90
36206;DHT22;22242;48.796;9.930;2022-12-29T01:08:20;10.20;99.90
36206;DHT22;22242;48.796;9.930;2022-12-29T01:10:48;10.20;99.90
36206;DHT22;22242;48.796;9.930;2022-12-29T01:13:22;10.20;99.90
36206;DHT22;22242;48.796;9.930;2022-12-29T01:15:49;10.20;99.90
36206;DHT22;22242;48.796;9.930;2022-12-29T01:18:17;10.20;99.90
36206;DHT22;22242;48.796;9.930;2022-12-29T01:20:44;10.30;99.90
36206;DHT22;22242;48.796;9.930;2022-12-29T01:23:10;10.30;99.90
36206;DHT22;22242;48.796;9.930;2022-12-29T01:25:37;10.20;99.90
36206;DHT22;22242;48.796;9.930;2022-12-29T01:28:05;10.20;99.90
36206;DHT22;22242;48.796;9.930;2022-12-29T01:30:33;10.20;99.90
36206;DHT22;22242;48.796;9.930;2022-12-29T01:33:00;10.20;99.90
36206;DHT22;22242;48.796;9.930;2022-12-29T01:35:27;10.10;99.90
36206;DHT22;22242;48.796;9.930;2022-12-29T01:37:56;10.30;99.90
36206;DHT22;22242;48.796;9.930;2022-12-29T01:40:23;10.30;99.90
36206;DHT22;22242;48.796;9.930;2022-12-29T01:42:50;10.10;99.90
36206;DHT22;22242;48.796;9.930;2022-12-29T01:45:25;10.20;99.90
36206;DHT22;22242;48.796;9.930;2022-12-29T01:47:53;10.00;99.90
36206;DHT22;22242;48.796;9.930;2022-12-29T01:50:22;10.00;99.90
36206;DHT22;22242;48.796;9.930;2022-12-29T01:52:54;9.90;99.90
36206;DHT22;22242;48.796;9.930;2022-12-29T01:55:22;9.80;99.90
36206;DHT22;22242;48.796;9.930;2022-12-29T01:57:49;9.70;99.90
36206;DHT22;22242;48.796;9.930;2022-12-29T02:00:18;9.70;99.90
36206;DHT22;22242;48.796;9.930;2022-12-29T02:02:47;9.60;99.90
36206;DHT22;22242;48.796;9.930;2022-12-29T02:05:16;9.60;99.90
36206;DHT22;22242;48.796;9.930;2022-12-29T02:07:44;9.60;99.90
36206;DHT22;22242;48.796;9.930;2022-12-29T02:10:11;9.50;99.90
36206;DHT22;22242;48.796;9.930;2022-12-29T02:12:40;9.60;99.90
36206;DHT22;22242;48.796;9.930;2022-12-29T02:15:07;9.50;99.90
36206;DHT22;22242;48.796;9.930;2022-12-29T02:17:38;9.50;99.90
36206;DHT22;22242;48.796;9.930;2022-12-29T02:23:03;9.50;99.90
36206;DHT22;22242;48.796;9.930;2022-12-29T02:25:46;9.40;99.90
36206;DHT22;22242;48.796;9.930;2022-12-29T02:31:16;9.40;99.90
36206;DHT22;22242;48.796;9.930;2022-12-29T02:33:50;9.40;99.90
36206;DHT22;22242;48.796;9.930;2022-12-29T02:36:22;9.30;99.90
36206;DHT22;22242;48.796;9.930;2022-12-29T02:38:52;9.40;99.90
36206;DHT22;22242;48.796;9.930;2022-12-29T02:41:21;9.40;99.90
36206;DHT22;22242;48.796;9.930;2022-12-29T02:43:50;9.30;99.90
36206;DHT22;22242;48.796;9.930;2022-12-29T02:46:19;9.30;99.90
36206;DHT22;22242;48.796;9.930;2022-12-29T02:48:50;9.30;99.90
36206;DHT22;22242;48.796;9.930;2022-12-29T02:51:20;9.30;99.90
36206;DHT22;22242;48.796;9.930;2022-12-29T02:53:47;9.30;99.90
36206;DHT22;22242;48.796;9.930;2022-12-29T02:56:32;9.30;99.90
36206;DHT22;22242;48.796;9.930;2022-12-29T02:58:58;9.30;99.90
36206;DHT22;22242;48.796;9.930;2022-12-29T03:01:32;9.40;99.90
36206;DHT22;22242;48.796;9.930;2022-12-29T03:04:14;9.30;99.90
36206;DHT22;22242;48.796;9.930;2022-12-29T03:06:47;9.20;99.90
36206;DHT22;22242;48.796;9.930;2022-12-29T03:09:19;9.30;99.90
36206;DHT22;22242;48.796;9.930;2022-12-29T03:11:48;9.20;99.90
36206;DHT22;22242;48.796;9.930;2022-12-29T03:14:37;9.40;99.90
36206;DHT22;22242;48.796;9.930;2022-12-29T03:17:26;9.40;99.90
36206;DHT22;22242;48.796;9.930;2022-12-29T03:19:56;9.40;99.90
36206;DHT22;22242;48.796;9.930;2022-12-29T03:22:27;9.50;99.90
36206;DHT22;22242;48.796;9.930;2022-12-29T03:25:05;9.40;99.90
36206;DHT22;22242;48.796;9.930;2022-12-29T03:27:44;9.40;99.90
36206;DHT22;22242;48.796;9.930;2022-12-29T03:30:12;9.40;99.90
36206;DHT22;22242;48.796;9.930;2022-12-29T03:32:42;9.40;99.90
36206;DHT22;22242;48.796;9.930;2022-12-29T03:35:11;9.50;99.90
36206;DHT22;22242;48.796;9.930;2022-12-29T03:37:40;9.60;99.90
36206;DHT22;22242;48.796;9.930;2022-12-29T03:40:08;9.90;99.90
36206;DHT22;22242;48.796;9.930;2022-12-29T03:42:35;10.00;99.90
36206;DHT22;22242;48.796;9.930;2022-12-29T03:45:03;10.20;99.90
36206;DHT22;22242;48.796;9.930;2022-12-29T03:50:27;10.40;99.90
36206;DHT22;22242;48.796;9.930;2022-12-29T03:52:54;10.50;99.90
36206;DHT22;22242;48.796;9.930;2022-12-29T03:55:22;10.40;99.90
36206;DHT22;22242;48.796;9.930;2022-12-29T03:57:48;10.50;99.90
36206;DHT22;22242;48.796;9.930;2022-12-29T04:00:23;10.30;99.90
36206;DHT22;22242;48.796;9.930;2022-12-29T04:02:50;10.20;99.90
36206;DHT22;22242;48.796;9.930;2022-12-29T04:05:19;10.10;99.90
36206;DHT22;22242;48.796;9.930;2022-12-29T04:07:49;10.10;99.90
36206;DHT22;22242;48.796;9.930;2022-12-29T04:10:16;10.10;99.90
36206;DHT22;22242;48.796;9.930;2022-12-29T04:12:44;9.80;99.90
36206;DHT22;22242;48.796;9.930;2022-12-29T04:15:11;9.70;99.90
36206;DHT22;22242;48.796;9.930;2022-12-29T04:17:39;9.60;99.90
36206;DHT22;22242;48.796;9.930;2022-12-29T04:20:06;9.60;99.90
36206;DHT22;22242;48.796;9.930;2022-12-29T04:22:58;9.60;99.90
36206;DHT22;22242;48.796;9.930;2022-12-29T04:25:25;9.50;99.90
36206;DHT22;22242;48.796;9.930;2022-12-29T04:27:53;9.60;99.90
36206;DHT22;22242;48.796;9.930;2022-12-29T04:30:38;9.50;99.90
36206;DHT22;22242;48.796;9.930;2022-12-29T04:33:12;9.40;99.90
36206;DHT22;22242;48.796;9.930;2022-12-29T04:35:41;9.60;99.90
36206;DHT22;22242;48.796;9.930;2022-12-29T04:38:09;9.50;99.90
36206;DHT22;22242;48.796;9.930;2022-12-29T04:40:37;9.50;99.90
36206;DHT22;22242;48.796;9.930;2022-12-29T04:43:04;9.80;99.90
36206;DHT22;22242;48.796;9.930;2022-12-29T04:45:35;9.70;99.90
36206;DHT22;22242;48.796;9.930;2022-12-29T04:48:21;9.70;99.90
36206;DHT22;22242;48.796;9.930;2022-12-29T04:51:06;9.70;99.90
36206;DHT22;22242;48.796;9.930;2022-12-29T04:53:38;9.70;99.90
36206;DHT22;22242;48.796;9.930;2022-12-29T04:56:05;9.90;99.90
36206;DHT22;22242;48.796;9.930;2022-12-29T04:58:32;9.90;99.90
36206;DHT22;22242;48.796;9.930;2022-12-29T05:00:59;9.70;99.90
36206;DHT22;22242;48.796;9.930;2022-12-29T05:03:28;9.60;99.90
36206;DHT22;22242;48.796;9.930;2022-12-29T05:05:55;9.50;99.90
36206;DHT22;22242;48.796;9.930;2022-12-29T05:08:22;9.60;99.90
36206;DHT22;22242;48.796;9.930;2022-12-29T05:10:51;9.60;99.90
36206;DHT22;22242;48.796;9.930;2022-12-29T05:13:19;9.40;99.90
36206;DHT22;22242;48.796;9.930;2022-12-29T05:15:47;9.50;99.90
36206;DHT22;22242;48.796;9.930;2022-12-29T05:18:14;9.40;99.90
36206;DHT22;22242;48.796;9.930;2022-12-29T05:20:41;9.40;99.90
36206;DHT22;22242;48.796;9.930;2022-12-29T05:23:08;9.40;99.90
36206;DHT22;22242;48.796;9.930;2022-12-29T05:25:35;9.20;99.90
36206;DHT22;22242;48.796;9.930;2022-12-29T05:28:17;9.00;99.90
36206;DHT22;22242;48.796;9.930;2022-12-29T05:31:13;8.80;99.90
36206;DHT22;22242;48.796;9.930;2022-12-29T05:33:39;8.70;99.90
36206;DHT22;22242;48.796;9.930;2022-12-29T05:36:08;8.50;99.90
36206;DHT22;22242;48.796;9.930;2022-12-29T05:38:37;8.30;99.90
36206;DHT22;22242;48.796;9.930;2022-12-29T05:41:04;8.10;99.90
36206;DHT22;22242;48.796;9.930;2022-12-29T05:43:51;7.90;99.90
36206;DHT22;22242;48.796;9.930;2022-12-29T05:46:29;7.70;99.90
36206;DHT22;22242;48.796;9.930;2022-12-29T05:49:09;7.60;99.90
36206;DHT22;22242;48.796;9.930;2022-12-29T05:52:02;7.50;99.90
36206;DHT22;22242;48.796;9.930;2022-12-29T05:54:29;7.90;99.90
36206;DHT22;22242;48.796;9.930;2022-12-29T05:56:56;8.10;99.90
36206;DHT22;22242;48.796;9.930;2022-12-29T05:59:24;8.20;99.90
36206;DHT22;22242;48.796;9.930;2022-12-29T06:01:52;8.30;99.90
36206;DHT22;22242;48.796;9.930;2022-12-29T06:04:19;8.50;99.90
36206;DHT22;22242;48.796;9.930;2022-12-29T06:06:46;8.60;99.90
36206;DHT22;22242;48.796;9.930;2022-12-29T06:09:21;8.50;99.90
36206;DHT22;22242;48.796;9.930;2022-12-29T06:11:48;8.50;99.90
36206;DHT22;22242;48.796;9.930;2022-12-29T06:14:15;8.30;99.90
36206;DHT22;22242;48.796;9.930;2022-12-29T06:16:43;8.50;99.90
36206;DHT22;22242;48.796;9.930;2022-12-29T06:19:12;8.40;99.90
36206;DHT22;22242;48.796;9.930;2022-12-29T06:21:39;8.50;99.90
36206;DHT22;22242;48.796;9.930;2022-12-29T06:24:06;8.40;99.90
36206;DHT22;22242;48.796;9.930;2022-12-29T06:26:35;8.30;99.90
36206;DHT22;22242;48.796;9.930;2022-12-29T06:29:02;8.20;99.90
36206;DHT22;22242;48.796;9.930;2022-12-29T06:31:29;8.20;99.90
36206;DHT22;22242;48.796;9.930;2022-12-29T06:33:57;8.20;99.90
36206;DHT22;22242;48.796;9.930;2022-12-29T06:36:25;8.30;99.90
36206;DHT22;22242;48.796;9.930;2022-12-29T06:38:53;8.30;99.90
36206;DHT22;22242;48.796;9.930;2022-12-29T06:41:19;8.30;99.90
36206;DHT22;22242;48.796;9.930;2022-12-29T06:44:05;8.40;99.90
36206;DHT22;22242;48.796;9.930;2022-12-29T06:46:50;8.50;99.90
36206;DHT22;22242;48.796;9.930;2022-12-29T06:49:18;8.50;99.90
36206;DHT22;22242;48.796;9.930;2022-12-29T06:51:45;8.50;99.90
36206;DHT22;22242;48.796;9.930;2022-12-29T06:54:12;8.60;99.90
36206;DHT22;22242;48.796;9.930;2022-12-29T06:56:39;8.70;99.90
36206;DHT22;22242;48.796;9.930;2022-12-29T06:59:05;8.70;99.90
36206;DHT22;22242;48.796;9.930;2022-12-29T07:01:32;8.70;99.90
36206;DHT22;22242;48.796;9.930;2022-12-29T07:04:01;8.60;99.90
36206;DHT22;22242;48.796;9.930;2022-12-29T07:06:29;8.70;99.90
36206;DHT22;22242;48.796;9.930;2022-12-29T07:08:56;8.60;99.90
36206;DHT22;22242;48.796;9.930;2022-12-29T07:11:22;8.50;99.90
36206;DHT22;22242;48.796;9.930;2022-12-29T07:13:49;8.50;99.90
36206;DHT22;22242;48.796;9.930;2022-12-29T07:16:16;8.40;99.90
36206;DHT22;22242;48.796;9.930;2022-12-29T07:18:42;8.50;99.90
36206;DHT22;22242;48.796;9.930;2022-12-29T07:21:09;8.50;99.90
36206;DHT22;22242;48.796;9.930;2022-12-29T07:23:38;8.50;99.90
36206;DHT22;22242;48.796;9.930;2022-12-29T07:26:05;8.30;99.90
36206;DHT22;22242;48.796;9.930;2022-12-29T07:28:32;8.40;99.90
36206;DHT22;22242;48.796;9.930;2022-12-29T07:30:59;8.40;99.90
36206;DHT22;22242;48.796;9.930;2022-12-29T07:33:28;8.30;99.90
36206;DHT22;22242;48.796;9.930;2022-12-29T07:35:54;8.40;99.90
36206;DHT22;22242;48.796;9.930;2022-12-29T07:38:21;8.40;99.90
36206;DHT22;22242;48.796;9.930;2022-12-29T07:40:49;8.50;99.90
36206;DHT22;22242;48.796;9.930;2022-12-29T07:43:16;8.80;99.90
36206;DHT22;22242;48.796;9.930;2022-12-29T07:45:56;8.90;99.90
36206;DHT22;22242;48.796;9.930;2022-12-29T07:48:23;8.90;99.90
36206;DHT22;22242;48.796;9.930;2022-12-29T07:50:49;9.00;99.90
36206;DHT22;22242;48.796;9.930;2022-12-29T07:53:16;8.90;99.90
36206;DHT22;22242;48.796;9.930;2022-12-29T07:55:43;9.00;99.90
36206;DHT22;22242;48.796;9.930;2022-12-29T07:58:11;9.00;99.90
36206;DHT22;22242;48.796;9.930;2022-12-29T08:00:37;9.00;99.90
36206;DHT22;22242;48.796;9.930;2022-12-29T08:03:04;9.00;99.90
36206;DHT22;22242;48.796;9.930;2022-12-29T08:05:31;9.00;99.90
36206;DHT22;22242;48.796;9.930;2022-12-29T08:07:58;9.10;99.90
36206;DHT22;22242;48.796;9.930;2022-12-29T08:10:25;9.10;99.90
36206;DHT22;22242;48.796;9.930;2022-12-29T08:12:51;9.30;99.90
36206;DHT22;22242;48.796;9.930;2022-12-29T08:15:19;9.30;99.90
36206;DHT22;22242;48.796;9.930;2022-12-29T08:17:46;9.10;99.90
36206;DHT22;22242;48.796;9.930;2022-12-29T08:20:13;9.20;99.90
36206;DHT22;22242;48.796;9.930;2022-12-29T08:22:39;9.30;99.90
36206;DHT22;22242;48.796;9.930;2022-12-29T08:25:06;9.40;99.90
36206;DHT22;22242;48.796;9.930;2022-12-29T08:27:33;9.60;99.90
36206;DHT22;22242;48.796;9.930;2022-12-29T08:30:00;9.90;99.90
36206;DHT22;22242;48.796;9.930;2022-12-29T08:32:28;10.30;99.90
36206;DHT22;22242;48.796;9.930;2022-12-29T08:34:54;10.50;99.90
36206;DHT22;22242;48.796;9.930;2022-12-29T08:37:21;10.70;99.90
36206;DHT22;22242;48.796;9.930;2022-12-29T08:39:48;10.80;99.90
36206;DHT22;22242;48.796;9.930;2022-12-29T08:42:15;11.00;99.90
36206;DHT22;22242;48.796;9.930;2022-12-29T08:44:43;11.40;99.90
36206;DHT22;22242;48.796;9.930;2022-12-29T08:47:10;11.90;99.90
36206;DHT22;22242;48.796;9.930;2022-12-29T08:49:38;12.80;99.90
36206;DHT22;22242;48.796;9.930;2022-12-29T08:52:05;13.20;99.90
36206;DHT22;22242;48.796;9.930;2022-12-29T08:54:31;13.50;99.90
36206;DHT22;22242;48.796;9.930;2022-12-29T08:56:58;13.30;99.90
36206;DHT22;22242;48.796;9.930;2022-12-29T08:59:33;13.60;99.90
36206;DHT22;22242;48.796;9.930;2022-12-29T09:01:59;13.30;99.90
36206;DHT22;22242;48.796;9.930;2022-12-29T09:04:27;13.30;99.90
36206;DHT22;22242;48.796;9.930;2022-12-29T09:06:55;13.70;99.90
36206;DHT22;22242;48.796;9.930;2022-12-29T09:09:21;13.00;99.90
36206;DHT22;22242;48.796;9.930;2022-12-29T09:11:48;12.90;99.90
36206;DHT22;22242;48.796;9.930;2022-12-29T09:14:15;12.50;99.90
36206;DHT22;22242;48.796;9.930;2022-12-29T09:16:41;12.30;99.90
36206;DHT22;22242;48.796;9.930;2022-12-29T09:19:25;12.20;99.90
36206;DHT22;22242;48.796;9.930;2022-12-29T09:21:52;12.20;99.90
36206;DHT22;22242;48.796;9.930;2022-12-29T09:24:20;12.40;99.90
36206;DHT22;22242;48.796;9.930;2022-12-29T09:26:47;12.80;99.90
36206;DHT22;22242;48.796;9.930;2022-12-29T09:29:13;13.20;99.90
36206;DHT22;22242;48.796;9.930;2022-12-29T09:31:41;12.90;99.90
36206;DHT22;22242;48.796;9.930;2022-12-29T09:34:07;12.70;99.90
36206;DHT22;22242;48.796;9.930;2022-12-29T09:36:34;12.50;99.90
36206;DHT22;22242;48.796;9.930;2022-12-29T09:39:01;12.70;99.90
36206;DHT22;22242;48.796;9.930;2022-12-29T09:41:29;12.90;99.90
36206;DHT22;22242;48.796;9.930;2022-12-29T09:44:03;13.00;99.90
36206;DHT22;22242;48.796;9.930;2022-12-29T09:46:33;13.10;99.90
36206;DHT22;22242;48.796;9.930;2022-12-29T09:49:06;12.80;99.90
36206;DHT22;22242;48.796;9.930;2022-12-29T09:51:33;12.50;99.90
36206;DHT22;22242;48.796;9.930;2022-12-29T09:54:02;12.40;99.90
36206;DHT22;22242;48.796;9.930;2022-12-29T09:56:31;12.20;99.90
36206;DHT22;22242;48.796;9.930;2022-12-29T09:58:59;12.10;99.90
36206;DHT22;22242;48.796;9.930;2022-12-29T10:01:28;12.20;99.90
36206;DHT22;22242;48.796;9.930;2022-12-29T10:03:57;12.40;99.90
36206;DHT22;22242;48.796;9.930;2022-12-29T10:06:25;12.00;99.90
36206;DHT22;22242;48.796;9.930;2022-12-29T10:08:55;11.80;99.90
36206;DHT22;22242;48.796;9.930;2022-12-29T10:11:27;11.80;99.90
36206;DHT22;22242;48.796;9.930;2022-12-29T10:14:02;11.20;99.90
36206;DHT22;22242;48.796;9.930;2022-12-29T10:16:34;11.60;99.90
36206;DHT22;22242;48.796;9.930;2022-12-29T10:19:07;11.70;99.90
36206;DHT22;22242;48.796;9.930;2022-12-29T10:21:42;11.80;99.90
36206;DHT22;22242;48.796;9.930;2022-12-29T10:24:12;11.90;99.90
36206;DHT22;22242;48.796;9.930;2022-12-29T10:26:39;11.90;99.90
36206;DHT22;22242;48.796;9.930;2022-12-29T10:29:10;12.10;99.90
36206;DHT22;22242;48.796;9.930;2022-12-29T10:31:41;12.00;99.90
36206;DHT22;22242;48.796;9.930;2022-12-29T10:34:11;12.00;99.90
36206;DHT22;22242;48.796;9.930;2022-12-29T10:36:41;12.00;99.90
36206;DHT22;22242;48.796;9.930;2022-12-29T10:39:12;12.10;99.90
36206;DHT22;22242;48.796;9.930;2022-12-29T10:41:41;12.00;99.90
36206;DHT22;22242;48.796;9.930;2022-12-29T10:44:13;12.10;99.90
36206;DHT22;22242;48.796;9.930;2022-12-29T10:46:41;11.90;99.90
36206;DHT22;22242;48.796;9.930;2022-12-29T10:49:10;11.80;99.90
36206;DHT22;22242;48.796;9.930;2022-12-29T10:51:41;11.70;99.90
36206;DHT22;22242;48.796;9.930;2022-12-29T10:54:10;11.90;99.90
36206;DHT22;22242;48.796;9.930;2022-12-29T10:56:39;11.80;99.90
36206;DHT22;22242;48.796;9.930;2022-12-29T10:59:10;11.70;99.90
36206;DHT22;22242;48.796;9.930;2022-12-29T11:01:41;11.80;99.90
36206;DHT22;22242;48.796;9.930;2022-12-29T11:04:16;11.80;99.90
36206;DHT22;22242;48.796;9.930;2022-12-29T11:06:47;11.70;99.90
36206;DHT22;22242;48.796;9.930;2022-12-29T11:09:16;11.80;99.90
36206;DHT22;22242;48.796;9.930;2022-12-29T11:11:45;11.90;99.90
36206;DHT22;22242;48.796;9.930;2022-12-29T11:14:13;11.80;99.90
36206;DHT22;22242;48.796;9.930;2022-12-29T11:16:41;11.90;99.90
36206;DHT22;22242;48.796;9.930;2022-12-29T11:19:19;11.90;99.90
36206;DHT22;22242;48.796;9.930;2022-12-29T11:21:46;11.90;99.90
36206;DHT22;22242;48.796;9.930;2022-12-29T11:24:18;12.10;99.90
36206;DHT22;22242;48.796;9.930;2022-12-29T11:26:45;12.50;99.90
36206;DHT22;22242;48.796;9.930;2022-12-29T11:29:22;12.20;99.90
36206;DHT22;22242;48.796;9.930;2022-12-29T11:31:51;12.10;99.90
36206;DHT22;22242;48.796;9.930;2022-12-29T11:34:20;11.80;99.90
36206;DHT22;22242;48.796;9.930;2022-12-29T11:36:47;11.80;99.90
36206;DHT22;22242;48.796;9.930;2022-12-29T11:39:26;11.70;99.90
36206;DHT22;22242;48.796;9.930;2022-12-29T11:41:54;11.80;99.90
36206;DHT22;22242;48.796;9.930;2022-12-29T11:44:21;11.80;99.90
36206;DHT22;22242;48.796;9.930;2022-12-29T11:46:48;10.50;99.90
36206;DHT22;22242;48.796;9.930;2022-12-29T11:49:20;12.10;99.90
36206;DHT22;22242;48.796;9.930;2022-12-29T11:51:47;12.20;99.90
36206;DHT22;22242;48.796;9.930;2022-12-29T11:54:15;12.10;99.90
36206;DHT22;22242;48.796;9.930;2022-12-29T11:56:43;12.20;99.90
36206;DHT22;22242;48.796;9.930;2022-12-29T12:01:56;12.00;99.90
36206;DHT22;22242;48.796;9.930;2022-12-29T12:04:26;12.10;99.90
36206;DHT22;22242;48.796;9.930;2022-12-29T12:06:56;12.00;99.90
36206;DHT22;22242;48.796;9.930;2022-12-29T12:09:25;12.10;99.90
36206;DHT22;22242;48.796;9.930;2022-12-29T12:11:53;12.00;99.90
36206;DHT22;22242;48.796;9.930;2022-12-29T12:14:21;12.00;99.90
36206;DHT22;22242;48.796;9.930;2022-12-29T12:17:09;11.90;99.90
36206;DHT22;22242;48.796;9.930;2022-12-29T12:19:38;11.90;99.90
36206;DHT22;22242;48.796;9.930;2022-12-29T12:22:08;12.00;99.90
36206;DHT22;22242;48.796;9.930;2022-12-29T12:24:37;11.90;99.90
36206;DHT22;22242;48.796;9.930;2022-12-29T12:27:09;11.80;99.90
36206;DHT22;22242;48.796;9.930;2022-12-29T12:29:38;11.80;99.90
36206;DHT22;22242;48.796;9.930;2022-12-29T12:32:10;11.80;99.90
36206;DHT22;22242;48.796;9.930;2022-12-29T12:34:39;11.70;99.90
36206;DHT22;22242;48.796;9.930;2022-12-29T12:39:58;11.80;99.90
36206;DHT22;22242;48.796;9.930;2022-12-29T12:42:32;11.60;99.90
36206;DHT22;22242;48.796;9.930;2022-12-29T12:45:07;11.60;99.90
36206;DHT22;22242;48.796;9.930;2022-12-29T12:47:44;11.50;99.90
36206;DHT22;22242;48.796;9.930;2022-12-29T12:50:23;11.60;99.90
36206;DHT22;22242;48.796;9.930;2022-12-29T12:53:00;11.60;99.90
36206;DHT22;22242;48.796;9.930;2022-12-29T12:55:35;11.50;99.90
36206;DHT22;22242;48.796;9.930;2022-12-29T12:58:08;11.60;99.90
36206;DHT22;22242;48.796;9.930;2022-12-29T13:00:38;11.60;99.90
36206;DHT22;22242;48.796;9.930;2022-12-29T13:03:10;11.60;99.90
36206;DHT22;22242;48.796;9.930;2022-12-29T13:05:44;11.60;99.90
36206;DHT22;22242;48.796;9.930;2022-12-29T13:08:24;11.50;99.90
36206;DHT22;22242;48.796;9.930;2022-12-29T13:10:55;11.50;99.90
36206;DHT22;22242;48.796;9.930;2022-12-29T13:13:36;11.50;99.90
36206;DHT22;22242;48.796;9.930;2022-12-29T13:16:06;11.40;99.90
36206;DHT22;22242;48.796;9.930;2022-12-29T13:18:37;11.50;99.90
36206;DHT22;22242;48.796;9.930;2022-12-29T13:21:07;11.50;99.90
36206;DHT22;22242;48.796;9.930;2022-12-29T13:23:36;11.50;99.90
36206;DHT22;22242;48.796;9.930;2022-12-29T13:26:09;11.30;99.90
36206;DHT22;22242;48.796;9.930;2022-12-29T13:28:41;11.30;99.90
36206;DHT22;22242;48.796;9.930;2022-12-29T13:31:12;11.30;99.90
36206;DHT22;22242;48.796;9.930;2022-12-29T13:33:44;11.40;99.90
36206;DHT22;22242;48.796;9.930;2022-12-29T13:36:19;11.20;99.90
36206;DHT22;22242;48.796;9.930;2022-12-29T13:38:48;11.20;99.90
36206;DHT22;22242;48.796;9.930;2022-12-29T13:41:18;11.20;99.90
36206;DHT22;22242;48.796;9.930;2022-12-29T13:43:45;11.10;99.90
36206;DHT22;22242;48.796;9.930;2022-12-29T13:46:14;11.20;99.90
36206;DHT22;22242;48.796;9.930;2022-12-29T13:48:43;11.20;99.90
36206;DHT22;22242;48.796;9.930;2022-12-29T13:51:12;11.10;99.90
36206;DHT22;22242;48.796;9.930;2022-12-29T13:53:45;11.10;99.90
36206;DHT22;22242;48.796;9.930;2022-12-29T13:56:14;11.20;99.90
36206;DHT22;22242;48.796;9.930;2022-12-29T13:58:47;11.10;99.90
36206;DHT22;22242;48.796;9.930;2022-12-29T14:01:17;11.10;99.90
36206;DHT22;22242;48.796;9.930;2022-12-29T14:03:47;11.00;99.90
36206;DHT22;22242;48.796;9.930;2022-12-29T14:06:18;11.00;99.90
36206;DHT22;22242;48.796;9.930;2022-12-29T14:08:47;11.00;99.90
36206;DHT22;22242;48.796;9.930;2022-12-29T14:11:14;10.90;99.90
36206;DHT22;22242;48.796;9.930;2022-12-29T14:13:42;11.00;99.90
36206;DHT22;22242;48.796;9.930;2022-12-29T14:16:10;11.00;99.90
36206;DHT22;22242;48.796;9.930;2022-12-29T14:18:41;11.00;99.90
36206;DHT22;22242;48.796;9.930;2022-12-29T14:21:09;11.00;99.90
36206;DHT22;22242;48.796;9.930;2022-12-29T14:23:37;11.10;99.90
36206;DHT22;22242;48.796;9.930;2022-12-29T14:26:16;11.10;99.90
36206;DHT22;22242;48.796;9.930;2022-12-29T14:28:44;11.10;99.90
36206;DHT22;22242;48.796;9.930;2022-12-29T14:34:16;11.10;99.90
36206;DHT22;22242;48.796;9.930;2022-12-29T14:36:43;11.10;99.90
36206;DHT22;22242;48.796;9.930;2022-12-29T14:39:30;11.20;99.90
36206;DHT22;22242;48.796;9.930;2022-12-29T14:42:00;11.10;99.90
36206;DHT22;22242;48.796;9.930;2022-12-29T14:44:27;11.10;99.90
36206;DHT22;22242;48.796;9.930;2022-12-29T14:46:55;11.00;99.90
36206;DHT22;22242;48.796;9.930;2022-12-29T14:49:23;11.00;99.90
36206;DHT22;22242;48.796;9.930;2022-12-29T14:51:51;11.00;99.90
36206;DHT22;22242;48.796;9.930;2022-12-29T14:57:20;11.00;99.90
36206;DHT22;22242;48.796;9.930;2022-12-29T14:59:48;10.90;99.90
36206;DHT22;22242;48.796;9.930;2022-12-29T15:02:19;10.90;99.90
36206;DHT22;22242;48.796;9.930;2022-12-29T15:04:47;11.00;99.90
36206;DHT22;22242;48.796;9.930;2022-12-29T15:07:14;11.00;99.90
36206;DHT22;22242;48.796;9.930;2022-12-29T15:09:42;10.90;99.90
36206;DHT22;22242;48.796;9.930;2022-12-29T15:12:17;10.90;99.90
36206;DHT22;22242;48.796;9.930;2022-12-29T15:14:51;10.80;99.90
36206;DHT22;22242;48.796;9.930;2022-12-29T15:17:23;10.70;99.90
36206;DHT22;22242;48.796;9.930;2022-12-29T15:19:50;10.80;99.90
36206;DHT22;22242;48.796;9.930;2022-12-29T15:22:17;10.70;99.90
36206;DHT22;22242;48.796;9.930;2022-12-29T15:24:43;10.60;99.90
36206;DHT22;22242;48.796;9.930;2022-12-29T15:27:11;10.60;99.90
36206;DHT22;22242;48.796;9.930;2022-12-29T15:29:39;10.60;99.90
36206;DHT22;22242;48.796;9.930;2022-12-29T15:32:15;10.50;99.90
36206;DHT22;22242;48.796;9.930;2022-12-29T15:34:42;10.60;99.90
36206;DHT22;22242;48.796;9.930;2022-12-29T15:37:09;10.50;99.90
36206;DHT22;22242;48.796;9.930;2022-12-29T15:39:36;10.40;99.90
36206;DHT22;22242;48.796;9.930;2022-12-29T15:42:03;10.40;99.90
36206;DHT22;22242;48.796;9.930;2022-12-29T15:44:34;10.50;99.90
36206;DHT22;22242;48.796;9.930;2022-12-29T15:47:03;10.50;99.90
36206;DHT22;22242;48.796;9.930;2022-12-29T15:49:31;10.40;99.90
36206;DHT22;22242;48.796;9.930;2022-12-29T15:51:58;10.40;99.90
36206;DHT22;22242;48.796;9.930;2022-12-29T15:54:26;10.30;99.90
36206;DHT22;22242;48.796;9.930;2022-12-29T15:56:55;10.20;99.90
36206;DHT22;22242;48.796;9.930;2022-12-29T15:59:24;10.40;99.90
36206;DHT22;22242;48.796;9.930;2022-12-29T16:01:51;10.30;99.90
36206;DHT22;22242;48.796;9.930;2022-12-29T16:04:18;10.30;99.90
36206;DHT22;22242;48.796;9.930;2022-12-29T16:06:53;10.20;99.90
36206;DHT22;22242;48.796;9.930;2022-12-29T16:09:28;10.20;99.90
36206;DHT22;22242;48.796;9.930;2022-12-29T16:11:55;10.70;99.90
36206;DHT22;22242;48.796;9.930;2022-12-29T16:14:24;10.30;99.90
36206;DHT22;22242;48.796;9.930;2022-12-29T16:16:53;10.30;99.90